sensor_id;sensor_type;location;lat;lon;timestamp;P1;durP1;ratioP1;P2;durP2;ratioP2
13959;SDS011;7052;51.050;3.716;2022-07-03T00:00:28;3.33;;;2.00;;
13959;SDS011;7052;51.050;3.716;2022-07-03T00:02:55;3.63;;;1.52;;
13959;SDS011;7052;51.050;3.716;2022-07-03T00:05:22;3.78;;;1.63;;
13959;SDS011;7052;51.050;3.716;2022-07-03T00:07:49;3.58;;;1.70;;
13959;SDS011;7052;51.050;3.716;2022-07-03T00:10:17;2.70;;;1.73;;
13959;SDS011;7052;51.050;3.716;2022-07-03T00:12:44;1.63;;;1.50;;
13959;SDS011;7052;51.050;3.716;2022-07-03T00:15:11;3.33;;;1.60;;
13959;SDS011;7052;51.050;3.716;2022-07-03T00:17:39;2.35;;;1.90;;
13959;SDS011;7052;51.050;3.716;2022-07-03T00:20:06;2.63;;;1.75;;
13959;SDS011;7052;51.050;3.716;2022-07-03T00:22:35;5.72;;;1.55;;
13959;SDS011;7052;51.050;3.716;2022-07-03T00:25:07;3.72;;;1.85;;
13959;SDS011;7052;51.050;3.716;2022-07-03T00:27:38;3.53;;;1.90;;
13959;SDS011;7052;51.050;3.716;2022-07-03T00:30:05;3.63;;;1.77;;
13959;SDS011;7052;51.050;3.716;2022-07-03T00:32:33;4.03;;;1.58;;
13959;SDS011;7052;51.050;3.716;2022-07-03T00:35:05;3.22;;;1.63;;
13959;SDS011;7052;51.050;3.716;2022-07-03T00:37:32;2.78;;;1.67;;
13959;SDS011;7052;51.050;3.716;2022-07-03T00:39:59;2.83;;;1.63;;
13959;SDS011;7052;51.050;3.716;2022-07-03T00:42:26;3.00;;;1.60;;
13959;SDS011;7052;51.050;3.716;2022-07-03T00:44:56;4.57;;;1.98;;
13959;SDS011;7052;51.050;3.716;2022-07-03T00:47:25;2.80;;;1.67;;
13959;SDS011;7052;51.050;3.716;2022-07-03T00:49:54;2.40;;;1.50;;
13959;SDS011;7052;51.050;3.716;2022-07-03T00:52:23;6.30;;;1.95;;
13959;SDS011;7052;51.050;3.716;2022-07-03T00:54:51;2.38;;;1.55;;
13959;SDS011;7052;51.050;3.716;2022-07-03T00:57:19;2.92;;;1.52;;
13959;SDS011;7052;51.050;3.716;2022-07-03T00:59:47;2.42;;;1.88;;
13959;SDS011;7052;51.050;3.716;2022-07-03T01:02:18;3.78;;;1.70;;
13959;SDS011;7052;51.050;3.716;2022-07-03T01:04:56;4.63;;;1.92;;
13959;SDS011;7052;51.050;3.716;2022-07-03T01:07:29;4.43;;;2.00;;
13959;SDS011;7052;51.050;3.716;2022-07-03T01:10:04;3.75;;;1.88;;
13959;SDS011;7052;51.050;3.716;2022-07-03T01:12:38;2.40;;;1.85;;
13959;SDS011;7052;51.050;3.716;2022-07-03T01:15:18;3.47;;;2.22;;
13959;SDS011;7052;51.050;3.716;2022-07-03T01:17:58;2.22;;;1.80;;
13959;SDS011;7052;51.050;3.716;2022-07-03T01:20:33;5.03;;;1.90;;
13959;SDS011;7052;51.050;3.716;2022-07-03T01:23:04;2.58;;;1.67;;
13959;SDS011;7052;51.050;3.716;2022-07-03T01:25:55;3.67;;;1.90;;
13959;SDS011;7052;51.050;3.716;2022-07-03T01:28:24;3.53;;;1.73;;
13959;SDS011;7052;51.050;3.716;2022-07-03T01:30:52;4.57;;;1.80;;
13959;SDS011;7052;51.050;3.716;2022-07-03T01:33:21;2.70;;;1.83;;
13959;SDS011;7052;51.050;3.716;2022-07-03T01:35:54;3.05;;;1.83;;
13959;SDS011;7052;51.050;3.716;2022-07-03T01:38:26;2.88;;;1.70;;
13959;SDS011;7052;51.050;3.716;2022-07-03T01:40:55;2.90;;;1.83;;
13959;SDS011;7052;51.050;3.716;2022-07-03T01:43:25;3.30;;;1.60;;
13959;SDS011;7052;51.050;3.716;2022-07-03T01:45:55;2.65;;;1.98;;
13959;SDS011;7052;51.050;3.716;2022-07-03T01:48:23;2.97;;;1.98;;
13959;SDS011;7052;51.050;3.716;2022-07-03T01:50:51;3.97;;;1.83;;
13959;SDS011;7052;51.050;3.716;2022-07-03T01:53:19;3.42;;;1.90;;
13959;SDS011;7052;51.050;3.716;2022-07-03T01:55:49;2.58;;;1.80;;
13959;SDS011;7052;51.050;3.716;2022-07-03T01:58:19;2.42;;;1.75;;
13959;SDS011;7052;51.050;3.716;2022-07-03T02:00:47;3.30;;;1.90;;
13959;SDS011;7052;51.050;3.716;2022-07-03T02:03:21;2.70;;;1.75;;
13959;SDS011;7052;51.050;3.716;2022-07-03T02:05:54;2.80;;;1.65;;
13959;SDS011;7052;51.050;3.716;2022-07-03T02:15:13;2.47;;;1.50;;
13959;SDS011;7052;51.050;3.716;2022-07-03T02:17:44;2.35;;;1.70;;
13959;SDS011;7052;51.050;3.716;2022-07-03T02:20:13;5.82;;;2.13;;
13959;SDS011;7052;51.050;3.716;2022-07-03T02:22:42;4.60;;;2.08;;
13959;SDS011;7052;51.050;3.716;2022-07-03T02:25:12;2.50;;;1.80;;
13959;SDS011;7052;51.050;3.716;2022-07-03T02:27:47;2.83;;;1.90;;
13959;SDS011;7052;51.050;3.716;2022-07-03T02:30:22;3.72;;;1.92;;
13959;SDS011;7052;51.050;3.716;2022-07-03T02:32:50;4.80;;;2.40;;
13959;SDS011;7052;51.050;3.716;2022-07-03T02:35:21;3.00;;;1.90;;
13959;SDS011;7052;51.050;3.716;2022-07-03T02:37:53;2.58;;;1.98;;
13959;SDS011;7052;51.050;3.716;2022-07-03T02:40:26;4.25;;;1.90;;
13959;SDS011;7052;51.050;3.716;2022-07-03T02:42:58;2.80;;;2.05;;
13959;SDS011;7052;51.050;3.716;2022-07-03T02:45:38;2.63;;;1.90;;
13959;SDS011;7052;51.050;3.716;2022-07-03T02:48:10;3.90;;;2.10;;
13959;SDS011;7052;51.050;3.716;2022-07-03T02:50:48;3.15;;;1.88;;
13959;SDS011;7052;51.050;3.716;2022-07-03T02:53:21;1.95;;;1.75;;
13959;SDS011;7052;51.050;3.716;2022-07-03T02:55:56;3.85;;;1.90;;
13959;SDS011;7052;51.050;3.716;2022-07-03T02:58:32;2.42;;;2.17;;
13959;SDS011;7052;51.050;3.716;2022-07-03T03:01:15;3.28;;;2.10;;
13959;SDS011;7052;51.050;3.716;2022-07-03T03:03:50;4.00;;;2.33;;
13959;SDS011;7052;51.050;3.716;2022-07-03T03:06:28;4.28;;;2.35;;
13959;SDS011;7052;51.050;3.716;2022-07-03T03:08:59;2.60;;;2.17;;
13959;SDS011;7052;51.050;3.716;2022-07-03T03:11:29;5.53;;;2.85;;
13959;SDS011;7052;51.050;3.716;2022-07-03T03:14:05;2.70;;;2.50;;
13959;SDS011;7052;51.050;3.716;2022-07-03T03:16:36;4.75;;;2.80;;
13959;SDS011;7052;51.050;3.716;2022-07-03T03:19:12;2.60;;;2.40;;
13959;SDS011;7052;51.050;3.716;2022-07-03T03:21:42;3.85;;;2.60;;
13959;SDS011;7052;51.050;3.716;2022-07-03T03:24:13;5.93;;;2.78;;
13959;SDS011;7052;51.050;3.716;2022-07-03T03:26:40;3.35;;;2.60;;
13959;SDS011;7052;51.050;3.716;2022-07-03T03:29:07;3.70;;;2.50;;
13959;SDS011;7052;51.050;3.716;2022-07-03T03:31:34;3.92;;;2.70;;
13959;SDS011;7052;51.050;3.716;2022-07-03T03:34:04;3.72;;;2.70;;
13959;SDS011;7052;51.050;3.716;2022-07-03T03:36:32;3.47;;;2.60;;
13959;SDS011;7052;51.050;3.716;2022-07-03T03:38:59;3.55;;;2.90;;
13959;SDS011;7052;51.050;3.716;2022-07-03T03:41:26;4.25;;;2.60;;
13959;SDS011;7052;51.050;3.716;2022-07-03T03:43:53;4.15;;;2.88;;
13959;SDS011;7052;51.050;3.716;2022-07-03T03:46:20;3.47;;;3.15;;
13959;SDS011;7052;51.050;3.716;2022-07-03T03:48:47;3.42;;;3.05;;
13959;SDS011;7052;51.050;3.716;2022-07-03T03:51:15;6.07;;;3.63;;
13959;SDS011;7052;51.050;3.716;2022-07-03T03:53:42;4.00;;;3.60;;
13959;SDS011;7052;51.050;3.716;2022-07-03T03:56:10;4.38;;;3.50;;
13959;SDS011;7052;51.050;3.716;2022-07-03T03:58:40;6.32;;;3.80;;
13959;SDS011;7052;51.050;3.716;2022-07-03T04:01:08;5.63;;;4.18;;
13959;SDS011;7052;51.050;3.716;2022-07-03T04:03:36;4.63;;;3.63;;
13959;SDS011;7052;51.050;3.716;2022-07-03T04:06:03;5.15;;;3.90;;
13959;SDS011;7052;51.050;3.716;2022-07-03T04:08:31;6.10;;;4.05;;
13959;SDS011;7052;51.050;3.716;2022-07-03T04:10:59;4.95;;;4.45;;
13959;SDS011;7052;51.050;3.716;2022-07-03T04:13:26;5.30;;;4.80;;
13959;SDS011;7052;51.050;3.716;2022-07-03T04:15:52;7.50;;;4.72;;
13959;SDS011;7052;51.050;3.716;2022-07-03T04:18:20;8.48;;;5.30;;
13959;SDS011;7052;51.050;3.716;2022-07-03T04:20:47;6.28;;;5.05;;
13959;SDS011;7052;51.050;3.716;2022-07-03T04:23:15;6.50;;;5.18;;
13959;SDS011;7052;51.050;3.716;2022-07-03T04:25:44;8.82;;;5.45;;
13959;SDS011;7052;51.050;3.716;2022-07-03T04:28:10;6.97;;;5.07;;
13959;SDS011;7052;51.050;3.716;2022-07-03T04:30:37;6.18;;;5.40;;
13959;SDS011;7052;51.050;3.716;2022-07-03T04:33:05;9.07;;;4.80;;
13959;SDS011;7052;51.050;3.716;2022-07-03T04:35:31;7.15;;;5.50;;
13959;SDS011;7052;51.050;3.716;2022-07-03T04:37:58;7.15;;;5.68;;
13959;SDS011;7052;51.050;3.716;2022-07-03T04:40:25;6.90;;;5.95;;
13959;SDS011;7052;51.050;3.716;2022-07-03T04:42:53;6.97;;;6.10;;
13959;SDS011;7052;51.050;3.716;2022-07-03T04:45:20;7.93;;;6.18;;
13959;SDS011;7052;51.050;3.716;2022-07-03T04:47:47;7.90;;;6.25;;
13959;SDS011;7052;51.050;3.716;2022-07-03T04:50:14;8.48;;;6.22;;
13959;SDS011;7052;51.050;3.716;2022-07-03T04:52:41;9.98;;;6.50;;
13959;SDS011;7052;51.050;3.716;2022-07-03T04:55:08;7.50;;;6.25;;
13959;SDS011;7052;51.050;3.716;2022-07-03T04:57:35;9.55;;;5.93;;
13959;SDS011;7052;51.050;3.716;2022-07-03T05:00:04;8.85;;;6.30;;
13959;SDS011;7052;51.050;3.716;2022-07-03T05:02:32;6.80;;;6.10;;
13959;SDS011;7052;51.050;3.716;2022-07-03T05:04:59;7.20;;;5.88;;
13959;SDS011;7052;51.050;3.716;2022-07-03T05:07:25;7.20;;;5.78;;
13959;SDS011;7052;51.050;3.716;2022-07-03T05:09:53;8.57;;;6.57;;
13959;SDS011;7052;51.050;3.716;2022-07-03T05:12:20;7.13;;;5.63;;
13959;SDS011;7052;51.050;3.716;2022-07-03T05:14:47;7.13;;;5.93;;
13959;SDS011;7052;51.050;3.716;2022-07-03T05:17:17;6.80;;;6.05;;
13959;SDS011;7052;51.050;3.716;2022-07-03T05:19:44;10.38;;;6.10;;
13959;SDS011;7052;51.050;3.716;2022-07-03T05:22:12;12.23;;;6.90;;
13959;SDS011;7052;51.050;3.716;2022-07-03T05:24:38;9.23;;;6.55;;
13959;SDS011;7052;51.050;3.716;2022-07-03T05:27:05;8.50;;;6.53;;
13959;SDS011;7052;51.050;3.716;2022-07-03T05:29:32;7.68;;;5.90;;
13959;SDS011;7052;51.050;3.716;2022-07-03T05:31:59;6.78;;;5.57;;
13959;SDS011;7052;51.050;3.716;2022-07-03T05:34:27;7.68;;;6.40;;
13959;SDS011;7052;51.050;3.716;2022-07-03T05:36:54;7.20;;;5.88;;
13959;SDS011;7052;51.050;3.716;2022-07-03T05:39:21;7.40;;;5.45;;
13959;SDS011;7052;51.050;3.716;2022-07-03T05:42:03;9.00;;;6.00;;
13959;SDS011;7052;51.050;3.716;2022-07-03T05:44:30;7.13;;;5.53;;
13959;SDS011;7052;51.050;3.716;2022-07-03T05:46:57;8.45;;;5.88;;
13959;SDS011;7052;51.050;3.716;2022-07-03T05:49:24;11.13;;;6.47;;
13959;SDS011;7052;51.050;3.716;2022-07-03T05:51:52;8.23;;;5.60;;
13959;SDS011;7052;51.050;3.716;2022-07-03T05:54:19;7.93;;;5.95;;
13959;SDS011;7052;51.050;3.716;2022-07-03T05:56:46;7.82;;;5.55;;
13959;SDS011;7052;51.050;3.716;2022-07-03T05:59:13;9.18;;;5.82;;
13959;SDS011;7052;51.050;3.716;2022-07-03T06:01:41;7.22;;;5.78;;
13959;SDS011;7052;51.050;3.716;2022-07-03T06:04:08;7.82;;;5.57;;
13959;SDS011;7052;51.050;3.716;2022-07-03T06:06:35;7.47;;;6.03;;
13959;SDS011;7052;51.050;3.716;2022-07-03T06:09:03;7.53;;;5.90;;
13959;SDS011;7052;51.050;3.716;2022-07-03T06:11:30;8.80;;;5.55;;
13959;SDS011;7052;51.050;3.716;2022-07-03T06:13:57;7.10;;;5.55;;
13959;SDS011;7052;51.050;3.716;2022-07-03T06:16:23;17.08;;;12.43;;
13959;SDS011;7052;51.050;3.716;2022-07-03T06:18:50;7.50;;;5.15;;
13959;SDS011;7052;51.050;3.716;2022-07-03T06:21:17;6.63;;;4.90;;
13959;SDS011;7052;51.050;3.716;2022-07-03T06:23:44;7.28;;;5.32;;
13959;SDS011;7052;51.050;3.716;2022-07-03T06:26:13;5.13;;;4.45;;
13959;SDS011;7052;51.050;3.716;2022-07-03T06:28:40;6.10;;;4.25;;
13959;SDS011;7052;51.050;3.716;2022-07-03T06:31:07;5.38;;;4.10;;
13959;SDS011;7052;51.050;3.716;2022-07-03T06:33:34;5.13;;;4.03;;
13959;SDS011;7052;51.050;3.716;2022-07-03T06:36:01;6.55;;;4.60;;
13959;SDS011;7052;51.050;3.716;2022-07-03T06:38:28;4.85;;;4.28;;
13959;SDS011;7052;51.050;3.716;2022-07-03T06:40:55;7.75;;;4.47;;
13959;SDS011;7052;51.050;3.716;2022-07-03T06:43:23;5.38;;;4.10;;
13959;SDS011;7052;51.050;3.716;2022-07-03T06:45:50;5.55;;;4.22;;
13959;SDS011;7052;51.050;3.716;2022-07-03T06:48:19;5.28;;;4.45;;
13959;SDS011;7052;51.050;3.716;2022-07-03T06:50:46;4.60;;;4.20;;
13959;SDS011;7052;51.050;3.716;2022-07-03T06:53:13;5.20;;;4.35;;
13959;SDS011;7052;51.050;3.716;2022-07-03T06:55:39;5.75;;;4.72;;
13959;SDS011;7052;51.050;3.716;2022-07-03T06:58:06;8.18;;;4.20;;
13959;SDS011;7052;51.050;3.716;2022-07-03T07:00:35;5.03;;;4.32;;
13959;SDS011;7052;51.050;3.716;2022-07-03T07:03:03;4.30;;;3.90;;
13959;SDS011;7052;51.050;3.716;2022-07-03T07:05:30;6.00;;;4.35;;
13959;SDS011;7052;51.050;3.716;2022-07-03T07:07:57;4.93;;;4.03;;
13959;SDS011;7052;51.050;3.716;2022-07-03T07:10:24;9.50;;;4.88;;
13959;SDS011;7052;51.050;3.716;2022-07-03T07:12:51;5.60;;;3.97;;
13959;SDS011;7052;51.050;3.716;2022-07-03T07:15:17;7.45;;;4.25;;
13959;SDS011;7052;51.050;3.716;2022-07-03T07:17:47;5.40;;;3.83;;
13959;SDS011;7052;51.050;3.716;2022-07-03T07:20:14;8.63;;;5.03;;
13959;SDS011;7052;51.050;3.716;2022-07-03T07:22:40;6.20;;;4.00;;
13959;SDS011;7052;51.050;3.716;2022-07-03T07:25:07;4.65;;;3.53;;
13959;SDS011;7052;51.050;3.716;2022-07-03T07:27:34;6.30;;;4.20;;
13959;SDS011;7052;51.050;3.716;2022-07-03T07:30:02;6.60;;;3.85;;
13959;SDS011;7052;51.050;3.716;2022-07-03T07:32:29;6.43;;;4.47;;
13959;SDS011;7052;51.050;3.716;2022-07-03T07:34:57;4.97;;;3.65;;
13959;SDS011;7052;51.050;3.716;2022-07-03T07:37:24;4.18;;;3.78;;
13959;SDS011;7052;51.050;3.716;2022-07-03T07:39:51;8.15;;;3.30;;
13959;SDS011;7052;51.050;3.716;2022-07-03T07:42:18;4.65;;;3.00;;
13959;SDS011;7052;51.050;3.716;2022-07-03T07:44:45;4.25;;;3.05;;
13959;SDS011;7052;51.050;3.716;2022-07-03T07:47:11;3.70;;;3.03;;
13959;SDS011;7052;51.050;3.716;2022-07-03T07:49:38;4.57;;;2.85;;
13959;SDS011;7052;51.050;3.716;2022-07-03T07:52:07;4.53;;;3.22;;
13959;SDS011;7052;51.050;3.716;2022-07-03T07:54:33;4.65;;;3.00;;
13959;SDS011;7052;51.050;3.716;2022-07-03T07:57:00;6.28;;;3.58;;
13959;SDS011;7052;51.050;3.716;2022-07-03T07:59:27;3.38;;;2.53;;
13959;SDS011;7052;51.050;3.716;2022-07-03T08:01:54;4.72;;;2.65;;
13959;SDS011;7052;51.050;3.716;2022-07-03T08:04:38;6.32;;;2.80;;
13959;SDS011;7052;51.050;3.716;2022-07-03T08:07:24;7.03;;;2.40;;
13959;SDS011;7052;51.050;3.716;2022-07-03T08:09:51;3.53;;;2.15;;
13959;SDS011;7052;51.050;3.716;2022-07-03T08:12:18;5.35;;;2.67;;
13959;SDS011;7052;51.050;3.716;2022-07-03T08:14:45;4.97;;;2.90;;
13959;SDS011;7052;51.050;3.716;2022-07-03T08:17:15;5.78;;;2.50;;
13959;SDS011;7052;51.050;3.716;2022-07-03T08:19:42;3.05;;;2.50;;
13959;SDS011;7052;51.050;3.716;2022-07-03T08:22:09;3.38;;;2.75;;
13959;SDS011;7052;51.050;3.716;2022-07-03T08:24:37;6.25;;;2.80;;
13959;SDS011;7052;51.050;3.716;2022-07-03T08:27:04;4.35;;;2.60;;
13959;SDS011;7052;51.050;3.716;2022-07-03T08:29:31;3.70;;;2.55;;
13959;SDS011;7052;51.050;3.716;2022-07-03T08:32:00;3.00;;;2.40;;
13959;SDS011;7052;51.050;3.716;2022-07-03T08:34:30;6.13;;;2.15;;
13959;SDS011;7052;51.050;3.716;2022-07-03T08:36:57;3.78;;;1.80;;
13959;SDS011;7052;51.050;3.716;2022-07-03T08:39:24;3.97;;;1.80;;
13959;SDS011;7052;51.050;3.716;2022-07-03T08:41:52;2.85;;;1.95;;
13959;SDS011;7052;51.050;3.716;2022-07-03T08:44:20;3.72;;;2.40;;
13959;SDS011;7052;51.050;3.716;2022-07-03T08:46:48;3.67;;;2.60;;
13959;SDS011;7052;51.050;3.716;2022-07-03T08:49:16;4.15;;;2.70;;
13959;SDS011;7052;51.050;3.716;2022-07-03T08:51:44;4.72;;;2.42;;
13959;SDS011;7052;51.050;3.716;2022-07-03T08:54:11;3.50;;;2.80;;
13959;SDS011;7052;51.050;3.716;2022-07-03T08:56:39;10.30;;;2.90;;
13959;SDS011;7052;51.050;3.716;2022-07-03T08:59:08;2.53;;;2.20;;
13959;SDS011;7052;51.050;3.716;2022-07-03T09:01:35;3.25;;;2.08;;
13959;SDS011;7052;51.050;3.716;2022-07-03T09:04:08;2.55;;;1.80;;
13959;SDS011;7052;51.050;3.716;2022-07-03T09:06:39;7.50;;;4.60;;
13959;SDS011;7052;51.050;3.716;2022-07-03T09:09:07;6.05;;;2.30;;
13959;SDS011;7052;51.050;3.716;2022-07-03T09:11:34;8.40;;;2.50;;
13959;SDS011;7052;51.050;3.716;2022-07-03T09:14:02;4.85;;;2.60;;
13959;SDS011;7052;51.050;3.716;2022-07-03T09:16:32;5.07;;;2.40;;
13959;SDS011;7052;51.050;3.716;2022-07-03T09:19:01;6.57;;;2.47;;
13959;SDS011;7052;51.050;3.716;2022-07-03T09:21:34;6.65;;;2.50;;
13959;SDS011;7052;51.050;3.716;2022-07-03T09:24:03;4.43;;;2.35;;
13959;SDS011;7052;51.050;3.716;2022-07-03T09:26:31;4.68;;;2.13;;
13959;SDS011;7052;51.050;3.716;2022-07-03T09:28:59;3.90;;;2.03;;
13959;SDS011;7052;51.050;3.716;2022-07-03T09:31:27;4.07;;;2.10;;
13959;SDS011;7052;51.050;3.716;2022-07-03T09:33:56;2.20;;;1.80;;
13959;SDS011;7052;51.050;3.716;2022-07-03T09:36:38;3.55;;;1.90;;
13959;SDS011;7052;51.050;3.716;2022-07-03T09:39:11;4.35;;;2.00;;
13959;SDS011;7052;51.050;3.716;2022-07-03T09:41:52;3.25;;;1.92;;
13959;SDS011;7052;51.050;3.716;2022-07-03T09:44:33;5.35;;;2.00;;
13959;SDS011;7052;51.050;3.716;2022-07-03T09:47:08;3.00;;;1.70;;
13959;SDS011;7052;51.050;3.716;2022-07-03T09:49:48;3.22;;;2.00;;
13959;SDS011;7052;51.050;3.716;2022-07-03T09:52:33;2.63;;;1.70;;
13959;SDS011;7052;51.050;3.716;2022-07-03T09:55:10;3.17;;;1.50;;
13959;SDS011;7052;51.050;3.716;2022-07-03T09:57:40;3.45;;;1.65;;
13959;SDS011;7052;51.050;3.716;2022-07-03T10:00:09;3.70;;;1.50;;
13959;SDS011;7052;51.050;3.716;2022-07-03T10:02:51;2.65;;;1.70;;
13959;SDS011;7052;51.050;3.716;2022-07-03T10:05:20;2.33;;;1.60;;
13959;SDS011;7052;51.050;3.716;2022-07-03T10:07:52;2.65;;;1.70;;
13959;SDS011;7052;51.050;3.716;2022-07-03T10:10:20;3.22;;;1.50;;
13959;SDS011;7052;51.050;3.716;2022-07-03T10:12:48;2.50;;;1.40;;
13959;SDS011;7052;51.050;3.716;2022-07-03T10:15:16;3.00;;;1.50;;
13959;SDS011;7052;51.050;3.716;2022-07-03T10:17:43;2.45;;;1.90;;
13959;SDS011;7052;51.050;3.716;2022-07-03T10:20:14;2.83;;;1.60;;
13959;SDS011;7052;51.050;3.716;2022-07-03T10:22:45;2.95;;;1.70;;
13959;SDS011;7052;51.050;3.716;2022-07-03T10:25:14;2.33;;;1.65;;
13959;SDS011;7052;51.050;3.716;2022-07-03T10:27:43;2.83;;;1.42;;
13959;SDS011;7052;51.050;3.716;2022-07-03T10:30:11;3.63;;;1.38;;
13959;SDS011;7052;51.050;3.716;2022-07-03T10:32:41;2.83;;;1.50;;
13959;SDS011;7052;51.050;3.716;2022-07-03T10:35:10;2.17;;;1.30;;
13959;SDS011;7052;51.050;3.716;2022-07-03T10:37:41;2.83;;;1.40;;
13959;SDS011;7052;51.050;3.716;2022-07-03T10:40:20;2.35;;;1.60;;
13959;SDS011;7052;51.050;3.716;2022-07-03T10:43:13;1.90;;;1.50;;
13959;SDS011;7052;51.050;3.716;2022-07-03T10:46:08;3.50;;;1.63;;
13959;SDS011;7052;51.050;3.716;2022-07-03T10:48:50;2.40;;;1.50;;
13959;SDS011;7052;51.050;3.716;2022-07-03T10:51:25;2.45;;;1.38;;
13959;SDS011;7052;51.050;3.716;2022-07-03T10:54:13;2.60;;;1.83;;
13959;SDS011;7052;51.050;3.716;2022-07-03T10:59:55;3.08;;;1.90;;
13959;SDS011;7052;51.050;3.716;2022-07-03T11:02:27;2.75;;;1.90;;
13959;SDS011;7052;51.050;3.716;2022-07-03T11:05:18;2.35;;;1.60;;
13959;SDS011;7052;51.050;3.716;2022-07-03T11:08:08;2.78;;;1.73;;
13959;SDS011;7052;51.050;3.716;2022-07-03T11:10:38;2.25;;;1.80;;
13959;SDS011;7052;51.050;3.716;2022-07-03T11:13:10;2.63;;;1.70;;
13959;SDS011;7052;51.050;3.716;2022-07-03T11:15:41;3.20;;;1.40;;
13959;SDS011;7052;51.050;3.716;2022-07-03T11:18:10;3.03;;;1.50;;
13959;SDS011;7052;51.050;3.716;2022-07-03T11:20:55;1.65;;;1.10;;
13959;SDS011;7052;51.050;3.716;2022-07-03T11:23:41;1.30;;;1.20;;
13959;SDS011;7052;51.050;3.716;2022-07-03T11:26:22;2.60;;;1.40;;
13959;SDS011;7052;51.050;3.716;2022-07-03T11:28:52;3.60;;;1.50;;
13959;SDS011;7052;51.050;3.716;2022-07-03T11:31:20;2.13;;;1.35;;
13959;SDS011;7052;51.050;3.716;2022-07-03T11:33:49;2.00;;;1.80;;
13959;SDS011;7052;51.050;3.716;2022-07-03T11:36:25;14.90;;;4.78;;
13959;SDS011;7052;51.050;3.716;2022-07-03T11:39:02;3.97;;;3.47;;
13959;SDS011;7052;51.050;3.716;2022-07-03T11:41:43;3.55;;;1.67;;
13959;SDS011;7052;51.050;3.716;2022-07-03T11:44:15;4.20;;;1.67;;
13959;SDS011;7052;51.050;3.716;2022-07-03T11:46:50;4.00;;;3.15;;
13959;SDS011;7052;51.050;3.716;2022-07-03T11:49:19;2.50;;;1.63;;
13959;SDS011;7052;51.050;3.716;2022-07-03T11:51:54;3.88;;;1.88;;
13959;SDS011;7052;51.050;3.716;2022-07-03T11:54:23;3.38;;;1.80;;
13959;SDS011;7052;51.050;3.716;2022-07-03T11:56:52;3.53;;;2.45;;
13959;SDS011;7052;51.050;3.716;2022-07-03T11:59:18;4.38;;;3.05;;
13959;SDS011;7052;51.050;3.716;2022-07-03T12:01:45;3.05;;;2.15;;
13959;SDS011;7052;51.050;3.716;2022-07-03T12:04:13;14.65;;;10.00;;
13959;SDS011;7052;51.050;3.716;2022-07-03T12:06:42;2.65;;;1.70;;
13959;SDS011;7052;51.050;3.716;2022-07-03T12:09:15;3.80;;;2.67;;
13959;SDS011;7052;51.050;3.716;2022-07-03T12:11:57;1.98;;;1.30;;
13959;SDS011;7052;51.050;3.716;2022-07-03T12:14:36;2.92;;;1.80;;
13959;SDS011;7052;51.050;3.716;2022-07-03T12:17:04;2.75;;;1.50;;
13959;SDS011;7052;51.050;3.716;2022-07-03T12:19:33;3.13;;;2.00;;
13959;SDS011;7052;51.050;3.716;2022-07-03T12:22:02;2.25;;;1.33;;
13959;SDS011;7052;51.050;3.716;2022-07-03T12:24:30;6.07;;;1.85;;
13959;SDS011;7052;51.050;3.716;2022-07-03T12:26:58;2.10;;;1.40;;
13959;SDS011;7052;51.050;3.716;2022-07-03T12:29:28;2.55;;;1.30;;
13959;SDS011;7052;51.050;3.716;2022-07-03T12:31:55;3.22;;;1.30;;
13959;SDS011;7052;51.050;3.716;2022-07-03T12:34:22;2.95;;;1.35;;
13959;SDS011;7052;51.050;3.716;2022-07-03T12:36:56;2.13;;;1.20;;
13959;SDS011;7052;51.050;3.716;2022-07-03T12:42:14;2.78;;;1.13;;
13959;SDS011;7052;51.050;3.716;2022-07-03T12:44:54;4.07;;;1.48;;
13959;SDS011;7052;51.050;3.716;2022-07-03T12:47:22;1.92;;;1.35;;
13959;SDS011;7052;51.050;3.716;2022-07-03T12:49:56;2.17;;;1.20;;
13959;SDS011;7052;51.050;3.716;2022-07-03T12:52:25;4.10;;;1.48;;
13959;SDS011;7052;51.050;3.716;2022-07-03T12:54:53;3.97;;;1.40;;
13959;SDS011;7052;51.050;3.716;2022-07-03T12:57:22;10.55;;;8.02;;
13959;SDS011;7052;51.050;3.716;2022-07-03T13:00:07;1.63;;;1.40;;
13959;SDS011;7052;51.050;3.716;2022-07-03T13:02:36;2.22;;;1.27;;
13959;SDS011;7052;51.050;3.716;2022-07-03T13:07:42;3.28;;;1.58;;
13959;SDS011;7052;51.050;3.716;2022-07-03T13:10:09;2.92;;;1.40;;
13959;SDS011;7052;51.050;3.716;2022-07-03T13:12:45;2.00;;;1.40;;
13959;SDS011;7052;51.050;3.716;2022-07-03T13:15:14;2.75;;;1.83;;
13959;SDS011;7052;51.050;3.716;2022-07-03T13:17:51;6.82;;;1.92;;
13959;SDS011;7052;51.050;3.716;2022-07-03T13:20:22;3.03;;;1.50;;
13959;SDS011;7052;51.050;3.716;2022-07-03T13:22:50;2.70;;;1.90;;
13959;SDS011;7052;51.050;3.716;2022-07-03T13:25:18;3.30;;;1.50;;
13959;SDS011;7052;51.050;3.716;2022-07-03T13:27:46;2.55;;;1.67;;
13959;SDS011;7052;51.050;3.716;2022-07-03T13:30:15;2.40;;;1.40;;
13959;SDS011;7052;51.050;3.716;2022-07-03T13:32:42;2.10;;;1.50;;
13959;SDS011;7052;51.050;3.716;2022-07-03T13:35:09;2.58;;;1.70;;
13959;SDS011;7052;51.050;3.716;2022-07-03T13:37:36;3.28;;;1.48;;
13959;SDS011;7052;51.050;3.716;2022-07-03T13:40:05;3.40;;;1.52;;
13959;SDS011;7052;51.050;3.716;2022-07-03T13:42:32;3.30;;;1.80;;
13959;SDS011;7052;51.050;3.716;2022-07-03T13:45:00;2.83;;;1.70;;
13959;SDS011;7052;51.050;3.716;2022-07-03T13:47:29;2.38;;;1.55;;
13959;SDS011;7052;51.050;3.716;2022-07-03T13:49:56;4.45;;;2.00;;
13959;SDS011;7052;51.050;3.716;2022-07-03T13:52:23;2.10;;;1.63;;
13959;SDS011;7052;51.050;3.716;2022-07-03T13:54:50;4.57;;;1.80;;
13959;SDS011;7052;51.050;3.716;2022-07-03T13:57:17;2.55;;;1.60;;
13959;SDS011;7052;51.050;3.716;2022-07-03T13:59:44;2.80;;;1.67;;
13959;SDS011;7052;51.050;3.716;2022-07-03T14:02:13;2.90;;;1.70;;
13959;SDS011;7052;51.050;3.716;2022-07-03T14:04:41;3.30;;;1.70;;
13959;SDS011;7052;51.050;3.716;2022-07-03T14:07:08;2.60;;;1.65;;
13959;SDS011;7052;51.050;3.716;2022-07-03T14:09:35;3.70;;;1.70;;
13959;SDS011;7052;51.050;3.716;2022-07-03T14:12:02;3.08;;;1.50;;
13959;SDS011;7052;51.050;3.716;2022-07-03T14:14:30;1.50;;;1.30;;
13959;SDS011;7052;51.050;3.716;2022-07-03T14:16:57;2.50;;;1.58;;
13959;SDS011;7052;51.050;3.716;2022-07-03T14:19:25;4.38;;;1.60;;
13959;SDS011;7052;51.050;3.716;2022-07-03T14:21:52;3.38;;;1.65;;
13959;SDS011;7052;51.050;3.716;2022-07-03T14:24:18;2.13;;;1.48;;
13959;SDS011;7052;51.050;3.716;2022-07-03T14:26:45;2.13;;;1.23;;
13959;SDS011;7052;51.050;3.716;2022-07-03T14:29:30;4.63;;;1.40;;
13959;SDS011;7052;51.050;3.716;2022-07-03T14:32:14;1.63;;;1.30;;
13959;SDS011;7052;51.050;3.716;2022-07-03T14:34:59;1.50;;;1.20;;
13959;SDS011;7052;51.050;3.716;2022-07-03T14:37:27;1.90;;;1.20;;
13959;SDS011;7052;51.050;3.716;2022-07-03T14:39:55;2.42;;;1.35;;
13959;SDS011;7052;51.050;3.716;2022-07-03T14:42:22;2.85;;;1.60;;
13959;SDS011;7052;51.050;3.716;2022-07-03T14:44:49;2.53;;;1.65;;
13959;SDS011;7052;51.050;3.716;2022-07-03T14:47:16;3.10;;;1.40;;
13959;SDS011;7052;51.050;3.716;2022-07-03T14:49:43;7.03;;;5.80;;
13959;SDS011;7052;51.050;3.716;2022-07-03T14:52:12;3.28;;;2.00;;
13959;SDS011;7052;51.050;3.716;2022-07-03T14:54:40;2.42;;;1.30;;
13959;SDS011;7052;51.050;3.716;2022-07-03T14:57:12;1.90;;;1.45;;
13959;SDS011;7052;51.050;3.716;2022-07-03T14:59:51;3.83;;;1.60;;
13959;SDS011;7052;51.050;3.716;2022-07-03T15:02:32;3.92;;;1.90;;
13959;SDS011;7052;51.050;3.716;2022-07-03T15:05:09;4.25;;;1.92;;
13959;SDS011;7052;51.050;3.716;2022-07-03T15:07:38;2.95;;;1.50;;
13959;SDS011;7052;51.050;3.716;2022-07-03T15:10:07;6.32;;;1.35;;
13959;SDS011;7052;51.050;3.716;2022-07-03T15:12:36;3.28;;;1.40;;
13959;SDS011;7052;51.050;3.716;2022-07-03T15:15:08;2.33;;;1.40;;
13959;SDS011;7052;51.050;3.716;2022-07-03T15:17:37;2.45;;;1.38;;
13959;SDS011;7052;51.050;3.716;2022-07-03T15:20:06;2.33;;;1.33;;
13959;SDS011;7052;51.050;3.716;2022-07-03T15:22:39;2.95;;;1.40;;
13959;SDS011;7052;51.050;3.716;2022-07-03T15:25:08;4.28;;;1.60;;
13959;SDS011;7052;51.050;3.716;2022-07-03T15:27:35;2.28;;;1.30;;
13959;SDS011;7052;51.050;3.716;2022-07-03T15:30:03;2.13;;;1.30;;
13959;SDS011;7052;51.050;3.716;2022-07-03T15:32:32;3.65;;;1.60;;